sensor_id;sensor_type;location;lat;lon;timestamp;P1;durP1;ratioP1;P2;durP2;ratioP2
59972;SDS011;55298;-36.624;-64.282;2022-11-27T00:01:28;11.88;;;4.07;;
59972;SDS011;55298;-36.624;-64.282;2022-11-27T00:04:02;11.65;;;5.10;;
59972;SDS011;55298;-36.624;-64.282;2022-11-27T00:06:31;10.88;;;4.65;;
59972;SDS011;55298;-36.624;-64.282;2022-11-27T00:09:05;10.02;;;4.78;;
59972;SDS011;55298;-36.624;-64.282;2022-11-27T00:11:36;8.60;;;4.65;;
59972;SDS011;55298;-36.624;-64.282;2022-11-27T00:14:05;10.93;;;5.60;;
59972;SDS011;55298;-36.624;-64.282;2022-11-27T00:16:34;17.08;;;12.52;;
59972;SDS011;55298;-36.624;-64.282;2022-11-27T00:19:02;16.42;;;10.77;;
59972;SDS011;55298;-36.624;-64.282;2022-11-27T00:21:31;14.57;;;9.48;;
59972;SDS011;55298;-36.624;-64.282;2022-11-27T00:24:02;25.65;;;18.95;;
59972;SDS011;55298;-36.624;-64.282;2022-11-27T00:26:31;19.08;;;8.63;;
59972;SDS011;55298;-36.624;-64.282;2022-11-27T00:29:00;21.77;;;15.40;;
59972;SDS011;55298;-36.624;-64.282;2022-11-27T00:31:29;10.32;;;4.53;;
59972;SDS011;55298;-36.624;-64.282;2022-11-27T00:33:59;10.80;;;4.68;;
59972;SDS011;55298;-36.624;-64.282;2022-11-27T00:36:30;5.07;;;3.40;;
59972;SDS011;55298;-36.624;-64.282;2022-11-27T00:38:59;7.03;;;5.30;;
59972;SDS011;55298;-36.624;-64.282;2022-11-27T00:48:12;8.70;;;3.50;;
59972;SDS011;55298;-36.624;-64.282;2022-11-27T00:50:45;7.93;;;3.60;;
59972;SDS011;55298;-36.624;-64.282;2022-11-27T00:53:13;6.82;;;3.00;;
59972;SDS011;55298;-36.624;-64.282;2022-11-27T00:55:44;12.38;;;4.40;;
59972;SDS011;55298;-36.624;-64.282;2022-11-27T00:58:12;12.52;;;5.25;;
59972;SDS011;55298;-36.624;-64.282;2022-11-27T01:00:40;10.07;;;3.45;;
59972;SDS011;55298;-36.624;-64.282;2022-11-27T01:03:07;9.80;;;3.00;;
59972;SDS011;55298;-36.624;-64.282;2022-11-27T01:05:35;11.52;;;3.30;;
59972;SDS011;55298;-36.624;-64.282;2022-11-27T01:08:03;12.73;;;3.60;;
59972;SDS011;55298;-36.624;-64.282;2022-11-27T01:13:55;15.43;;;2.60;;
59972;SDS011;55298;-36.624;-64.282;2022-11-27T01:16:26;10.05;;;3.17;;
59972;SDS011;55298;-36.624;-64.282;2022-11-27T01:18:56;10.20;;;2.38;;
59972;SDS011;55298;-36.624;-64.282;2022-11-27T01:21:28;10.30;;;2.58;;
59972;SDS011;55298;-36.624;-64.282;2022-11-27T01:23:57;9.18;;;2.90;;
59972;SDS011;55298;-36.624;-64.282;2022-11-27T01:26:27;7.07;;;3.17;;
59972;SDS011;55298;-36.624;-64.282;2022-11-27T01:28:55;12.35;;;2.80;;
59972;SDS011;55298;-36.624;-64.282;2022-11-27T01:31:25;13.68;;;2.80;;
59972;SDS011;55298;-36.624;-64.282;2022-11-27T01:33:59;10.05;;;3.45;;
59972;SDS011;55298;-36.624;-64.282;2022-11-27T01:36:31;10.38;;;3.72;;
59972;SDS011;55298;-36.624;-64.282;2022-11-27T01:39:00;15.85;;;3.67;;
59972;SDS011;55298;-36.624;-64.282;2022-11-27T01:41:30;10.82;;;4.07;;
59972;SDS011;55298;-36.624;-64.282;2022-11-27T01:44:41;11.75;;;3.65;;
59972;SDS011;55298;-36.624;-64.282;2022-11-27T01:47:16;14.90;;;3.50;;
59972;SDS011;55298;-36.624;-64.282;2022-11-27T01:49:55;11.13;;;2.90;;
59972;SDS011;55298;-36.624;-64.282;2022-11-27T01:52:31;9.40;;;2.83;;
59972;SDS011;55298;-36.624;-64.282;2022-11-27T01:55:05;7.65;;;2.75;;
59972;SDS011;55298;-36.624;-64.282;2022-11-27T01:57:40;9.98;;;3.10;;
59972;SDS011;55298;-36.624;-64.282;2022-11-27T02:00:11;14.95;;;3.15;;
59972;SDS011;55298;-36.624;-64.282;2022-11-27T02:02:40;10.40;;;2.70;;
59972;SDS011;55298;-36.624;-64.282;2022-11-27T02:05:11;9.88;;;2.85;;
59972;SDS011;55298;-36.624;-64.282;2022-11-27T02:07:47;8.57;;;2.75;;
59972;SDS011;55298;-36.624;-64.282;2022-11-27T02:10:20;8.70;;;2.65;;
59972;SDS011;55298;-36.624;-64.282;2022-11-27T02:12:57;7.85;;;2.40;;
59972;SDS011;55298;-36.624;-64.282;2022-11-27T02:18:35;10.85;;;2.60;;
59972;SDS011;55298;-36.624;-64.282;2022-11-27T02:21:22;7.72;;;2.30;;
59972;SDS011;55298;-36.624;-64.282;2022-11-27T02:24:12;9.48;;;2.70;;
59972;SDS011;55298;-36.624;-64.282;2022-11-27T02:29:41;7.63;;;2.47;;
59972;SDS011;55298;-36.624;-64.282;2022-11-27T02:32:14;8.25;;;2.50;;
59972;SDS011;55298;-36.624;-64.282;2022-11-27T02:34:54;11.65;;;2.70;;
59972;SDS011;55298;-36.624;-64.282;2022-11-27T02:40:20;8.05;;;2.90;;
59972;SDS011;55298;-36.624;-64.282;2022-11-27T02:43:00;10.57;;;2.35;;
59972;SDS011;55298;-36.624;-64.282;2022-11-27T02:45:44;7.60;;;2.78;;
59972;SDS011;55298;-36.624;-64.282;2022-11-27T02:48:15;10.02;;;2.40;;
59972;SDS011;55298;-36.624;-64.282;2022-11-27T02:50:47;14.10;;;3.05;;
59972;SDS011;55298;-36.624;-64.282;2022-11-27T02:53:20;9.38;;;2.50;;
59972;SDS011;55298;-36.624;-64.282;2022-11-27T02:55:52;8.60;;;2.42;;
59972;SDS011;55298;-36.624;-64.282;2022-11-27T02:58:25;13.38;;;3.08;;
59972;SDS011;55298;-36.624;-64.282;2022-11-27T03:00:55;8.57;;;2.83;;
59972;SDS011;55298;-36.624;-64.282;2022-11-27T03:03:26;20.58;;;3.47;;
59972;SDS011;55298;-36.624;-64.282;2022-11-27T03:06:01;9.20;;;2.63;;
59972;SDS011;55298;-36.624;-64.282;2022-11-27T03:08:37;8.13;;;2.53;;
59972;SDS011;55298;-36.624;-64.282;2022-11-27T03:11:16;7.63;;;2.45;;
59972;SDS011;55298;-36.624;-64.282;2022-11-27T03:13:47;6.35;;;2.30;;
59972;SDS011;55298;-36.624;-64.282;2022-11-27T03:16:30;8.13;;;2.22;;
59972;SDS011;55298;-36.624;-64.282;2022-11-27T03:19:24;4.90;;;2.45;;
59972;SDS011;55298;-36.624;-64.282;2022-11-27T03:22:03;7.03;;;2.53;;
59972;SDS011;55298;-36.624;-64.282;2022-11-27T03:24:34;9.55;;;2.30;;
59972;SDS011;55298;-36.624;-64.282;2022-11-27T03:27:02;9.20;;;2.33;;
59972;SDS011;55298;-36.624;-64.282;2022-11-27T03:29:42;5.97;;;2.33;;
59972;SDS011;55298;-36.624;-64.282;2022-11-27T03:32:16;6.57;;;2.08;;
59972;SDS011;55298;-36.624;-64.282;2022-11-27T03:34:46;7.07;;;2.20;;
59972;SDS011;55298;-36.624;-64.282;2022-11-27T03:37:13;7.72;;;2.20;;
59972;SDS011;55298;-36.624;-64.282;2022-11-27T03:39:43;5.35;;;2.00;;
59972;SDS011;55298;-36.624;-64.282;2022-11-27T03:42:22;5.65;;;2.13;;
59972;SDS011;55298;-36.624;-64.282;2022-11-27T03:45:13;6.15;;;2.53;;
59972;SDS011;55298;-36.624;-64.282;2022-11-27T03:47:58;7.32;;;1.98;;
59972;SDS011;55298;-36.624;-64.282;2022-11-27T03:53:37;4.40;;;2.53;;
59972;SDS011;55298;-36.624;-64.282;2022-11-27T03:56:21;5.82;;;2.63;;
59972;SDS011;55298;-36.624;-64.282;2022-11-27T03:59:02;7.35;;;2.15;;
59972;SDS011;55298;-36.624;-64.282;2022-11-27T04:01:41;6.97;;;2.17;;
59972;SDS011;55298;-36.624;-64.282;2022-11-27T04:04:09;6.22;;;2.22;;
59972;SDS011;55298;-36.624;-64.282;2022-11-27T04:06:37;4.93;;;1.90;;
59972;SDS011;55298;-36.624;-64.282;2022-11-27T04:09:05;5.10;;;2.03;;
59972;SDS011;55298;-36.624;-64.282;2022-11-27T04:11:34;5.80;;;1.90;;
59972;SDS011;55298;-36.624;-64.282;2022-11-27T04:14:02;10.23;;;2.38;;
59972;SDS011;55298;-36.624;-64.282;2022-11-27T04:16:30;7.10;;;2.00;;
59972;SDS011;55298;-36.624;-64.282;2022-11-27T04:18:58;7.93;;;1.80;;
59972;SDS011;55298;-36.624;-64.282;2022-11-27T04:21:25;9.23;;;1.80;;
59972;SDS011;55298;-36.624;-64.282;2022-11-27T04:23:53;7.57;;;2.45;;
59972;SDS011;55298;-36.624;-64.282;2022-11-27T04:26:20;9.10;;;2.00;;
59972;SDS011;55298;-36.624;-64.282;2022-11-27T04:28:49;4.85;;;2.30;;
59972;SDS011;55298;-36.624;-64.282;2022-11-27T04:31:16;3.92;;;1.70;;
59972;SDS011;55298;-36.624;-64.282;2022-11-27T04:33:47;8.20;;;1.80;;
59972;SDS011;55298;-36.624;-64.282;2022-11-27T04:36:15;10.70;;;2.13;;
59972;SDS011;55298;-36.624;-64.282;2022-11-27T04:38:42;9.73;;;2.00;;
59972;SDS011;55298;-36.624;-64.282;2022-11-27T04:41:10;5.78;;;1.83;;
59972;SDS011;55298;-36.624;-64.282;2022-11-27T04:43:39;5.45;;;1.73;;
59972;SDS011;55298;-36.624;-64.282;2022-11-27T04:46:06;4.88;;;1.80;;
59972;SDS011;55298;-36.624;-64.282;2022-11-27T04:48:34;7.57;;;1.98;;
59972;SDS011;55298;-36.624;-64.282;2022-11-27T04:51:02;9.50;;;2.20;;
59972;SDS011;55298;-36.624;-64.282;2022-11-27T04:53:29;7.43;;;2.20;;
59972;SDS011;55298;-36.624;-64.282;2022-11-27T04:55:58;5.47;;;2.00;;
59972;SDS011;55298;-36.624;-64.282;2022-11-27T04:58:28;5.95;;;1.88;;
59972;SDS011;55298;-36.624;-64.282;2022-11-27T05:04:24;9.77;;;2.38;;
59972;SDS011;55298;-36.624;-64.282;2022-11-27T05:13:15;8.93;;;2.35;;
59972;SDS011;55298;-36.624;-64.282;2022-11-27T05:15:44;6.47;;;2.35;;
59972;SDS011;55298;-36.624;-64.282;2022-11-27T05:18:11;11.40;;;2.40;;
59972;SDS011;55298;-36.624;-64.282;2022-11-27T05:20:39;14.00;;;2.70;;
59972;SDS011;55298;-36.624;-64.282;2022-11-27T05:23:07;13.27;;;2.88;;
59972;SDS011;55298;-36.624;-64.282;2022-11-27T05:25:36;12.77;;;2.88;;
59972;SDS011;55298;-36.624;-64.282;2022-11-27T05:28:06;11.43;;;2.90;;
59972;SDS011;55298;-36.624;-64.282;2022-11-27T05:30:35;11.65;;;2.80;;
59972;SDS011;55298;-36.624;-64.282;2022-11-27T05:33:04;11.02;;;3.20;;
59972;SDS011;55298;-36.624;-64.282;2022-11-27T05:35:34;8.50;;;2.67;;
59972;SDS011;55298;-36.624;-64.282;2022-11-27T05:38:02;13.07;;;2.60;;
59972;SDS011;55298;-36.624;-64.282;2022-11-27T05:40:31;13.30;;;3.15;;
59972;SDS011;55298;-36.624;-64.282;2022-11-27T05:42:59;7.72;;;2.42;;
59972;SDS011;55298;-36.624;-64.282;2022-11-27T05:45:28;9.43;;;2.67;;
59972;SDS011;55298;-36.624;-64.282;2022-11-27T05:48:00;8.75;;;2.45;;
59972;SDS011;55298;-36.624;-64.282;2022-11-27T05:50:29;7.22;;;2.08;;
59972;SDS011;55298;-36.624;-64.282;2022-11-27T05:52:57;10.40;;;2.33;;
59972;SDS011;55298;-36.624;-64.282;2022-11-27T05:55:24;6.50;;;2.30;;
59972;SDS011;55298;-36.624;-64.282;2022-11-27T05:57:52;7.97;;;2.10;;
59972;SDS011;55298;-36.624;-64.282;2022-11-27T06:00:20;6.22;;;2.47;;
59972;SDS011;55298;-36.624;-64.282;2022-11-27T06:02:49;5.40;;;2.05;;
59972;SDS011;55298;-36.624;-64.282;2022-11-27T06:05:17;5.55;;;2.15;;
59972;SDS011;55298;-36.624;-64.282;2022-11-27T06:07:45;7.80;;;2.35;;
59972;SDS011;55298;-36.624;-64.282;2022-11-27T06:10:13;10.85;;;2.60;;
59972;SDS011;55298;-36.624;-64.282;2022-11-27T06:12:40;7.35;;;2.38;;
59972;SDS011;55298;-36.624;-64.282;2022-11-27T06:15:09;6.88;;;2.42;;
59972;SDS011;55298;-36.624;-64.282;2022-11-27T06:17:36;10.07;;;2.10;;
59972;SDS011;55298;-36.624;-64.282;2022-11-27T06:20:05;6.95;;;2.75;;
59972;SDS011;55298;-36.624;-64.282;2022-11-27T06:22:34;4.72;;;2.70;;
59972;SDS011;55298;-36.624;-64.282;2022-11-27T06:25:02;7.13;;;2.33;;
59972;SDS011;55298;-36.624;-64.282;2022-11-27T06:27:33;5.15;;;2.10;;
59972;SDS011;55298;-36.624;-64.282;2022-11-27T06:30:02;6.53;;;1.92;;
59972;SDS011;55298;-36.624;-64.282;2022-11-27T06:32:30;7.05;;;2.25;;
59972;SDS011;55298;-36.624;-64.282;2022-11-27T06:34:59;5.63;;;2.20;;
59972;SDS011;55298;-36.624;-64.282;2022-11-27T06:37:27;5.78;;;2.15;;
59972;SDS011;55298;-36.624;-64.282;2022-11-27T06:39:54;8.10;;;2.42;;
59972;SDS011;55298;-36.624;-64.282;2022-11-27T06:42:22;8.25;;;2.33;;
59972;SDS011;55298;-36.624;-64.282;2022-11-27T06:44:52;6.72;;;2.03;;
59972;SDS011;55298;-36.624;-64.282;2022-11-27T06:47:23;5.32;;;2.00;;
59972;SDS011;55298;-36.624;-64.282;2022-11-27T06:49:51;7.60;;;2.40;;
59972;SDS011;55298;-36.624;-64.282;2022-11-27T06:52:20;7.65;;;2.17;;
59972;SDS011;55298;-36.624;-64.282;2022-11-27T06:54:47;6.72;;;2.00;;
59972;SDS011;55298;-36.624;-64.282;2022-11-27T06:57:16;4.45;;;1.88;;
59972;SDS011;55298;-36.624;-64.282;2022-11-27T06:59:49;9.70;;;2.10;;
59972;SDS011;55298;-36.624;-64.282;2022-11-27T07:02:20;9.15;;;2.42;;
59972;SDS011;55298;-36.624;-64.282;2022-11-27T07:04:47;5.15;;;2.13;;
59972;SDS011;55298;-36.624;-64.282;2022-11-27T07:07:16;7.15;;;2.28;;
59972;SDS011;55298;-36.624;-64.282;2022-11-27T07:09:47;5.75;;;2.45;;
59972;SDS011;55298;-36.624;-64.282;2022-11-27T07:12:14;5.80;;;2.00;;
59972;SDS011;55298;-36.624;-64.282;2022-11-27T07:14:44;8.60;;;2.50;;
59972;SDS011;55298;-36.624;-64.282;2022-11-27T07:17:11;5.57;;;2.10;;
59972;SDS011;55298;-36.624;-64.282;2022-11-27T07:19:39;4.30;;;1.90;;
59972;SDS011;55298;-36.624;-64.282;2022-11-27T07:22:08;10.77;;;1.90;;
59972;SDS011;55298;-36.624;-64.282;2022-11-27T07:24:36;5.95;;;2.40;;
59972;SDS011;55298;-36.624;-64.282;2022-11-27T07:27:03;5.70;;;2.05;;
59972;SDS011;55298;-36.624;-64.282;2022-11-27T07:29:31;3.00;;;2.05;;
59972;SDS011;55298;-36.624;-64.282;2022-11-27T07:32:00;6.68;;;2.40;;
59972;SDS011;55298;-36.624;-64.282;2022-11-27T07:34:29;5.28;;;2.00;;
59972;SDS011;55298;-36.624;-64.282;2022-11-27T07:36:57;6.13;;;2.30;;
59972;SDS011;55298;-36.624;-64.282;2022-11-27T07:39:29;7.43;;;2.15;;
59972;SDS011;55298;-36.624;-64.282;2022-11-27T07:41:57;5.93;;;2.00;;
59972;SDS011;55298;-36.624;-64.282;2022-11-27T07:44:25;3.35;;;1.95;;
59972;SDS011;55298;-36.624;-64.282;2022-11-27T07:46:52;4.78;;;1.85;;
59972;SDS011;55298;-36.624;-64.282;2022-11-27T07:49:22;3.00;;;1.80;;
59972;SDS011;55298;-36.624;-64.282;2022-11-27T07:51:52;4.28;;;2.00;;
59972;SDS011;55298;-36.624;-64.282;2022-11-27T07:54:21;2.45;;;1.90;;
59972;SDS011;55298;-36.624;-64.282;2022-11-27T07:56:52;3.38;;;1.95;;
59972;SDS011;55298;-36.624;-64.282;2022-11-27T07:59:20;3.85;;;1.92;;
59972;SDS011;55298;-36.624;-64.282;2022-11-27T08:01:47;4.22;;;1.67;;
59972;SDS011;55298;-36.624;-64.282;2022-11-27T08:04:15;5.10;;;1.80;;
59972;SDS011;55298;-36.624;-64.282;2022-11-27T08:06:44;5.10;;;1.60;;
59972;SDS011;55298;-36.624;-64.282;2022-11-27T08:09:14;5.10;;;1.63;;
59972;SDS011;55298;-36.624;-64.282;2022-11-27T08:11:42;4.40;;;1.85;;
59972;SDS011;55298;-36.624;-64.282;2022-11-27T08:14:10;4.63;;;1.58;;
59972;SDS011;55298;-36.624;-64.282;2022-11-27T08:16:38;2.75;;;1.42;;
59972;SDS011;55298;-36.624;-64.282;2022-11-27T08:19:08;3.38;;;1.60;;
59972;SDS011;55298;-36.624;-64.282;2022-11-27T08:21:37;3.28;;;1.45;;
59972;SDS011;55298;-36.624;-64.282;2022-11-27T08:24:05;6.38;;;1.65;;
59972;SDS011;55298;-36.624;-64.282;2022-11-27T08:26:34;3.08;;;1.40;;
59972;SDS011;55298;-36.624;-64.282;2022-11-27T08:29:04;4.75;;;1.67;;
59972;SDS011;55298;-36.624;-64.282;2022-11-27T08:31:32;5.00;;;1.50;;
59972;SDS011;55298;-36.624;-64.282;2022-11-27T08:34:01;3.28;;;1.60;;
59972;SDS011;55298;-36.624;-64.282;2022-11-27T08:36:29;3.83;;;1.60;;
59972;SDS011;55298;-36.624;-64.282;2022-11-27T08:38:57;1.73;;;1.48;;
59972;SDS011;55298;-36.624;-64.282;2022-11-27T08:41:25;2.88;;;1.55;;
59972;SDS011;55298;-36.624;-64.282;2022-11-27T08:43:54;3.08;;;1.50;;
59972;SDS011;55298;-36.624;-64.282;2022-11-27T08:46:22;2.72;;;1.40;;
59972;SDS011;55298;-36.624;-64.282;2022-11-27T08:48:51;4.60;;;1.60;;
59972;SDS011;55298;-36.624;-64.282;2022-11-27T08:51:19;2.22;;;1.40;;
59972;SDS011;55298;-36.624;-64.282;2022-11-27T08:53:46;3.13;;;1.77;;
59972;SDS011;55298;-36.624;-64.282;2022-11-27T08:56:16;2.97;;;1.42;;
59972;SDS011;55298;-36.624;-64.282;2022-11-27T08:58:45;5.60;;;1.80;;
59972;SDS011;55298;-36.624;-64.282;2022-11-27T09:01:15;4.97;;;1.60;;
59972;SDS011;55298;-36.624;-64.282;2022-11-27T09:03:47;5.13;;;1.50;;
59972;SDS011;55298;-36.624;-64.282;2022-11-27T09:06:19;1.75;;;1.20;;
59972;SDS011;55298;-36.624;-64.282;2022-11-27T09:08:50;4.45;;;1.92;;
59972;SDS011;55298;-36.624;-64.282;2022-11-27T09:11:18;2.08;;;1.40;;
59972;SDS011;55298;-36.624;-64.282;2022-11-27T09:13:49;4.07;;;1.30;;
59972;SDS011;55298;-36.624;-64.282;2022-11-27T09:16:18;2.85;;;1.50;;
59972;SDS011;55298;-36.624;-64.282;2022-11-27T09:18:50;3.28;;;1.40;;
59972;SDS011;55298;-36.624;-64.282;2022-11-27T09:21:22;7.68;;;1.70;;
59972;SDS011;55298;-36.624;-64.282;2022-11-27T09:23:56;1.50;;;1.40;;
59972;SDS011;55298;-36.624;-64.282;2022-11-27T09:26:27;4.80;;;1.50;;
59972;SDS011;55298;-36.624;-64.282;2022-11-27T09:28:57;1.88;;;1.23;;
59972;SDS011;55298;-36.624;-64.282;2022-11-27T09:31:27;3.38;;;1.20;;
59972;SDS011;55298;-36.624;-64.282;2022-11-27T09:33:54;2.15;;;1.23;;
59972;SDS011;55298;-36.624;-64.282;2022-11-27T09:36:26;1.70;;;1.20;;
59972;SDS011;55298;-36.624;-64.282;2022-11-27T09:38:53;2.42;;;1.70;;
59972;SDS011;55298;-36.624;-64.282;2022-11-27T09:46:50;1.77;;;1.30;;
59972;SDS011;55298;-36.624;-64.282;2022-11-27T09:49:25;1.30;;;1.20;;
59972;SDS011;55298;-36.624;-64.282;2022-11-27T09:52:26;2.22;;;1.48;;
59972;SDS011;55298;-36.624;-64.282;2022-11-27T09:55:00;1.45;;;1.35;;
59972;SDS011;55298;-36.624;-64.282;2022-11-27T09:57:37;1.40;;;1.30;;
59972;SDS011;55298;-36.624;-64.282;2022-11-27T10:00:12;1.98;;;1.40;;
59972;SDS011;55298;-36.624;-64.282;2022-11-27T10:02:42;2.88;;;1.33;;
59972;SDS011;55298;-36.624;-64.282;2022-11-27T10:05:13;1.30;;;1.20;;
59972;SDS011;55298;-36.624;-64.282;2022-11-27T10:13:40;2.50;;;1.33;;
59972;SDS011;55298;-36.624;-64.282;2022-11-27T10:16:37;1.83;;;1.40;;
59972;SDS011;55298;-36.624;-64.282;2022-11-27T10:22:09;1.40;;;1.20;;
59972;SDS011;55298;-36.624;-64.282;2022-11-27T10:25:04;3.28;;;1.40;;
59972;SDS011;55298;-36.624;-64.282;2022-11-27T10:27:55;1.98;;;1.40;;
59972;SDS011;55298;-36.624;-64.282;2022-11-27T10:30:48;2.25;;;1.40;;
59972;SDS011;55298;-36.624;-64.282;2022-11-27T10:33:34;2.85;;;1.90;;
59972;SDS011;55298;-36.624;-64.282;2022-11-27T10:36:35;2.20;;;1.50;;
59972;SDS011;55298;-36.624;-64.282;2022-11-27T10:39:02;2.30;;;1.40;;
59972;SDS011;55298;-36.624;-64.282;2022-11-27T10:41:36;2.22;;;1.40;;
59972;SDS011;55298;-36.624;-64.282;2022-11-27T10:47:07;1.92;;;1.50;;
59972;SDS011;55298;-36.624;-64.282;2022-11-27T10:49:39;3.13;;;1.60;;
59972;SDS011;55298;-36.624;-64.282;2022-11-27T10:52:10;3.08;;;1.80;;
59972;SDS011;55298;-36.624;-64.282;2022-11-27T10:54:41;3.95;;;1.67;;
59972;SDS011;55298;-36.624;-64.282;2022-11-27T10:57:17;1.98;;;1.65;;
59972;SDS011;55298;-36.624;-64.282;2022-11-27T11:00:20;2.67;;;1.55;;
59972;SDS011;55298;-36.624;-64.282;2022-11-27T11:02:58;3.35;;;1.60;;
59972;SDS011;55298;-36.624;-64.282;2022-11-27T11:05:28;2.92;;;1.83;;
59972;SDS011;55298;-36.624;-64.282;2022-11-27T11:08:12;3.53;;;1.70;;
59972;SDS011;55298;-36.624;-64.282;2022-11-27T11:10:49;4.10;;;1.85;;
59972;SDS011;55298;-36.624;-64.282;2022-11-27T11:13:21;3.38;;;1.88;;
59972;SDS011;55298;-36.624;-64.282;2022-11-27T11:18:55;5.35;;;2.70;;
59972;SDS011;55298;-36.624;-64.282;2022-11-27T11:21:36;3.67;;;1.95;;
59972;SDS011;55298;-36.624;-64.282;2022-11-27T11:24:29;3.75;;;1.85;;
59972;SDS011;55298;-36.624;-64.282;2022-11-27T11:27:02;6.32;;;1.90;;
59972;SDS011;55298;-36.624;-64.282;2022-11-27T11:29:47;5.25;;;1.80;;
59972;SDS011;55298;-36.624;-64.282;2022-11-27T11:32:22;3.60;;;1.80;;
59972;SDS011;55298;-36.624;-64.282;2022-11-27T11:35:00;4.63;;;2.08;;
59972;SDS011;55298;-36.624;-64.282;2022-11-27T11:37:35;5.60;;;1.80;;
59972;SDS011;55298;-36.624;-64.282;2022-11-27T11:40:19;4.38;;;1.70;;
59972;SDS011;55298;-36.624;-64.282;2022-11-27T11:42:58;5.75;;;1.95;;
59972;SDS011;55298;-36.624;-64.282;2022-11-27T11:45:33;4.13;;;1.70;;
59972;SDS011;55298;-36.624;-64.282;2022-11-27T11:48:22;3.80;;;1.80;;
59972;SDS011;55298;-36.624;-64.282;2022-11-27T11:53:39;3.65;;;1.50;;
59972;SDS011;55298;-36.624;-64.282;2022-11-27T12:02:13;3.58;;;1.70;;
59972;SDS011;55298;-36.624;-64.282;2022-11-27T12:05:14;4.72;;;1.60;;
59972;SDS011;55298;-36.624;-64.282;2022-11-27T12:13:51;5.35;;;1.90;;
59972;SDS011;55298;-36.624;-64.282;2022-11-27T12:22:18;7.10;;;1.73;;
59972;SDS011;55298;-36.624;-64.282;2022-11-27T12:25:29;3.22;;;1.63;;
59972;SDS011;55298;-36.624;-64.282;2022-11-27T12:30:57;7.53;;;2.20;;
59972;SDS011;55298;-36.624;-64.282;2022-11-27T12:36:44;7.88;;;1.88;;
59972;SDS011;55298;-36.624;-64.282;2022-11-27T12:39:31;7.15;;;1.70;;
59972;SDS011;55298;-36.624;-64.282;2022-11-27T12:42:24;5.82;;;1.50;;
59972;SDS011;55298;-36.624;-64.282;2022-11-27T12:45:00;4.63;;;1.83;;
59972;SDS011;55298;-36.624;-64.282;2022-11-27T12:47:48;6.88;;;1.80;;
59972;SDS011;55298;-36.624;-64.282;2022-11-27T12:56:21;3.00;;;1.80;;
59972;SDS011;55298;-36.624;-64.282;2022-11-27T12:59:10;6.47;;;1.70;;
59972;SDS011;55298;-36.624;-64.282;2022-11-27T13:02:03;6.55;;;1.80;;
59972;SDS011;55298;-36.624;-64.282;2022-11-27T13:05:40;4.50;;;1.90;;
59972;SDS011;55298;-36.624;-64.282;2022-11-27T13:07:49;3.78;;;1.83;;
59972;SDS011;55298;-36.624;-64.282;2022-11-27T13:13:15;5.75;;;1.63;;
59972;SDS011;55298;-36.624;-64.282;2022-11-27T13:15:51;9.07;;;2.30;;
59972;SDS011;55298;-36.624;-64.282;2022-11-27T13:21:26;10.68;;;2.35;;
59972;SDS011;55298;-36.624;-64.282;2022-11-27T13:24:00;10.50;;;3.17;;
59972;SDS011;55298;-36.624;-64.282;2022-11-27T13:26:30;7.38;;;2.20;;
59972;SDS011;55298;-36.624;-64.282;2022-11-27T13:29:06;6.65;;;2.95;;
59972;SDS011;55298;-36.624;-64.282;2022-11-27T13:31:44;9.35;;;2.50;;
59972;SDS011;55298;-36.624;-64.282;2022-11-27T13:34:17;7.10;;;2.20;;
59972;SDS011;55298;-36.624;-64.282;2022-11-27T13:39:32;6.47;;;1.90;;
59972;SDS011;55298;-36.624;-64.282;2022-11-27T13:42:06;8.68;;;1.92;;
59972;SDS011;55298;-36.624;-64.282;2022-11-27T13:44:56;7.57;;;2.15;;
59972;SDS011;55298;-36.624;-64.282;2022-11-27T13:47:34;5.30;;;1.98;;
59972;SDS011;55298;-36.624;-64.282;2022-11-27T13:50:15;3.90;;;1.77;;
59972;SDS011;55298;-36.624;-64.282;2022-11-27T13:55:26;8.93;;;2.17;;
59972;SDS011;55298;-36.624;-64.282;2022-11-27T13:57:58;5.07;;;2.67;;
59972;SDS011;55298;-36.624;-64.282;2022-11-27T14:00:36;8.02;;;2.22;;
59972;SDS011;55298;-36.624;-64.282;2022-11-27T14:03:19;7.10;;;2.15;;
59972;SDS011;55298;-36.624;-64.282;2022-11-27T14:05:49;4.88;;;2.40;;
59972;SDS011;55298;-36.624;-64.282;2022-11-27T14:08:23;6.57;;;2.50;;
59972;SDS011;55298;-36.624;-64.282;2022-11-27T14:10:57;6.43;;;2.80;;
59972;SDS011;55298;-36.624;-64.282;2022-11-27T14:13:32;6.80;;;2.85;;
59972;SDS011;55298;-36.624;-64.282;2022-11-27T14:16:08;7.50;;;3.05;;
59972;SDS011;55298;-36.624;-64.282;2022-11-27T14:18:58;8.70;;;2.50;;
59972;SDS011;55298;-36.624;-64.282;2022-11-27T14:21:34;9.75;;;4.10;;
59972;SDS011;55298;-36.624;-64.282;2022-11-27T14:26:55;6.03;;;2.13;;
59972;SDS011;55298;-36.624;-64.282;2022-11-27T14:29:23;7.53;;;2.30;;
59972;SDS011;55298;-36.624;-64.282;2022-11-27T14:31:57;4.93;;;2.83;;
59972;SDS011;55298;-36.624;-64.282;2022-11-27T14:34:30;8.00;;;2.40;;
59972;SDS011;55298;-36.624;-64.282;2022-11-27T14:37:00;7.22;;;3.70;;
59972;SDS011;55298;-36.624;-64.282;2022-11-27T14:39:34;5.93;;;2.80;;
59972;SDS011;55298;-36.624;-64.282;2022-11-27T14:42:04;5.88;;;3.15;;
59972;SDS011;55298;-36.624;-64.282;2022-11-27T14:44:45;15.73;;;10.73;;
59972;SDS011;55298;-36.624;-64.282;2022-11-27T14:47:17;10.77;;;3.60;;
59972;SDS011;55298;-36.624;-64.282;2022-11-27T14:49:53;7.05;;;2.20;;
59972;SDS011;55298;-36.624;-64.282;2022-11-27T14:52:22;7.75;;;2.38;;
59972;SDS011;55298;-36.624;-64.282;2022-11-27T14:54:53;9.45;;;2.90;;
59972;SDS011;55298;-36.624;-64.282;2022-11-27T14:57:24;10.10;;;5.30;;
59972;SDS011;55298;-36.624;-64.282;2022-11-27T15:02:41;7.80;;;2.80;;
59972;SDS011;55298;-36.624;-64.282;2022-11-27T15:05:18;7.40;;;2.83;;
59972;SDS011;55298;-36.624;-64.282;2022-11-27T15:07:47;7.72;;;2.80;;
59972;SDS011;55298;-36.624;-64.282;2022-11-27T15:12:58;6.43;;;3.33;;
59972;SDS011;55298;-36.624;-64.282;2022-11-27T15:15:30;7.82;;;3.15;;
59972;SDS011;55298;-36.624;-64.282;2022-11-27T15:18:07;7.97;;;3.00;;
59972;SDS011;55298;-36.624;-64.282;2022-11-27T15:20:47;6.13;;;2.58;;
59972;SDS011;55298;-36.624;-64.282;2022-11-27T15:23:18;11.25;;;2.90;;
59972;SDS011;55298;-36.624;-64.282;2022-11-27T15:26:08;6.82;;;3.30;;
59972;SDS011;55298;-36.624;-64.282;2022-11-27T15:28:42;7.70;;;3.47;;
59972;SDS011;55298;-36.624;-64.282;2022-11-27T15:31:23;8.77;;;2.72;;
59972;SDS011;55298;-36.624;-64.282;2022-11-27T15:33:58;7.07;;;2.85;;
59972;SDS011;55298;-36.624;-64.282;2022-11-27T15:36:34;6.25;;;2.60;;
59972;SDS011;55298;-36.624;-64.282;2022-11-27T15:41:50;8.57;;;3.63;;
59972;SDS011;55298;-36.624;-64.282;2022-11-27T15:44:24;11.30;;;4.30;;
59972;SDS011;55298;-36.624;-64.282;2022-11-27T15:47:00;11.32;;;4.15;;
59972;SDS011;55298;-36.624;-64.282;2022-11-27T15:49:32;8.32;;;2.50;;
59972;SDS011;55298;-36.624;-64.282;2022-11-27T15:51:59;9.43;;;3.20;;
59972;SDS011;55298;-36.624;-64.282;2022-11-27T15:54:28;9.43;;;3.90;;
59972;SDS011;55298;-36.624;-64.282;2022-11-27T15:56:56;7.38;;;2.75;;
59972;SDS011;55298;-36.624;-64.282;2022-11-27T15:59:24;8.93;;;3.10;;
59972;SDS011;55298;-36.624;-64.282;2022-11-27T16:01:53;9.00;;;3.25;;
59972;SDS011;55298;-36.624;-64.282;2022-11-27T16:04:23;5.20;;;2.60;;
59972;SDS011;55298;-36.624;-64.282;2022-11-27T16:06:51;7.97;;;2.72;;
59972;SDS011;55298;-36.624;-64.282;2022-11-27T16:09:19;6.88;;;2.65;;
59972;SDS011;55298;-36.624;-64.282;2022-11-27T16:11:47;9.57;;;2.42;;
59972;SDS011;55298;-36.624;-64.282;2022-11-27T16:14:15;5.82;;;2.50;;
59972;SDS011;55298;-36.624;-64.282;2022-11-27T16:16:44;5.95;;;2.20;;
59972;SDS011;55298;-36.624;-64.282;2022-11-27T16:19:11;9.15;;;3.35;;
59972;SDS011;55298;-36.624;-64.282;2022-11-27T16:21:42;5.43;;;2.20;;
59972;SDS011;55298;-36.624;-64.282;2022-11-27T16:24:12;4.95;;;2.40;;
59972;SDS011;55298;-36.624;-64.282;2022-11-27T16:26:41;6.82;;;2.50;;